Terminal Aerodrome Forecast
Issued by NWS Fort Wayne, IN

Home | Current Version | Previous Version | Text Only | Print | Product List | Glossary On
Versions: 1 2 3 4 5 6 7 8 9 10 11 12 13 14 15 16 17 18 19 20 21
000
FTUS43 KIWX 202300
TAFFWA
TAF
KFWA 202333Z 2100/2124 26016G25KT P6SM SCT025 BKN050
     FM210100 24012KT P6SM SCT035 BKN070
     FM211200 25018G28KT P6SM SCT040
     FM211600 26024G36KT P6SM SCT050 BKN080=

USA.gov is the U.S. government's official web portal to all federal, state and local government web resources and services.